Time;durP1;ratioP1;P1;durP2;ratioP2;P2;SDS_P1;SDS_P2;PMS_P1;PMS_P2;Temp;Humidity;BMP_temperature;BMP_pressure;BME280_temperature;BME280_humidity;BME280_pressure;Samples;Min_cycle;Max_cycle;Signal;HPM_P1;HPM_P2
2024/01/10 00:02:21;;;;;;;25.53;17.03;;;;;;;-0.30;100.00;100797.19;5052523;28;20443;-67
2024/01/10 00:04:48;;;;;;;26.40;16.77;;;;;;;-0.27;100.00;100801.38;5051939;28;20444;-67
2024/01/10 00:07:16;;;;;;;28.63;17.40;;;;;;;-0.19;100.00;100781.66;5052583;28;20435;-67
2024/01/10 00:09:43;;;;;;;26.23;17.13;;;;;;;0.03;100.00;100804.66;5051990;28;20950;-67
2024/01/10 00:12:09;;;;;;;25.13;16.57;;;;;;;0.16;100.00;100805.53;5052316;28;20507;-67
2024/01/10 00:14:36;;;;;;;29.57;18.63;;;;;;;0.16;100.00;100805.53;5051547;28;20877;-67
2024/01/10 00:17:03;;;;;;;25.67;17.87;;;;;;;0.25;100.00;100811.97;5051909;28;20815;-66
2024/01/10 00:19:30;;;;;;;24.87;15.93;;;;;;;0.35;100.00;100816.50;5051797;28;20489;-66
2024/01/10 00:21:56;;;;;;;23.67;15.27;;;;;;;0.48;100.00;100806.09;5051888;28;20950;-66
2024/01/10 00:24:24;;;;;;;24.33;15.33;;;;;;;0.60;100.00;100821.78;5051780;28;20508;-67
2024/01/10 00:26:51;;;;;;;21.33;14.23;;;;;;;0.65;100.00;100822.31;5052081;28;20442;-66
2024/01/10 00:29:18;;;;;;;23.00;15.87;;;;;;;0.76;100.00;100822.47;5051815;28;20811;-67
2024/01/10 00:31:45;;;;;;;31.07;17.83;;;;;;;0.84;100.00;100824.56;5042877;28;20443;-67
2024/01/10 00:34:12;;;;;;;29.03;18.93;;;;;;;0.78;100.00;100825.81;5048869;28;20443;-67
2024/01/10 00:36:38;;;;;;;25.30;15.80;;;;;;;0.56;100.00;100822.94;5050592;28;20427;-67
2024/01/10 00:39:06;;;;;;;19.03;14.70;;;;;;;0.44;100.00;100826.34;5031345;28;20998;-67
2024/01/10 00:41:34;;;;;;;24.30;14.57;;;;;;;0.55;100.00;100818.66;5031755;28;20443;-67
2024/01/10 00:44:01;;;;;;;21.73;14.83;;;;;;;0.50;100.00;100831.19;5048179;28;20512;-66
2024/01/10 00:46:27;;;;;;;21.67;15.30;;;;;;;0.47;100.00;100834.00;5051726;28;20461;-68
2024/01/10 00:48:54;;;;;;;21.43;16.00;;;;;;;0.63;100.00;100832.06;5051277;28;20978;-67
2024/01/10 00:51:21;;;;;;;26.67;17.03;;;;;;;0.73;100.00;100838.34;5051611;28;20439;-66
2024/01/10 00:53:47;;;;;;;23.50;17.27;;;;;;;0.83;100.00;100839.44;5051385;28;20439;-65
2024/01/10 00:56:14;;;;;;;21.87;16.60;;;;;;;0.91;100.00;100837.13;5051581;28;20528;-65
2024/01/10 00:58:42;;;;;;;24.87;18.23;;;;;;;0.77;100.00;100834.59;5051644;28;20526;-65
2024/01/10 01:01:09;;;;;;;29.43;17.87;;;;;;;0.71;100.00;100834.16;5051027;28;20973;-65
2024/01/10 01:03:36;;;;;;;28.33;18.20;;;;;;;0.53;100.00;100830.16;5051305;28;20504;-65
2024/01/10 01:06:02;;;;;;;27.37;18.57;;;;;;;0.49;100.00;100844.34;5051006;28;20438;-66
2024/01/10 01:08:29;;;;;;;26.33;18.47;;;;;;;0.43;100.00;100835.13;5051437;28;20436;-66
2024/01/10 01:10:56;;;;;;;26.17;17.67;;;;;;;0.50;100.00;100828.56;5051061;28;21020;-66
2024/01/10 01:13:23;;;;;;;25.10;18.30;;;;;;;0.59;100.00;100824.50;5051091;28;20446;-66
2024/01/10 01:15:51;;;;;;;25.07;18.03;;;;;;;0.47;100.00;100826.16;5050938;28;20438;-67
2024/01/10 01:18:19;;;;;;;25.03;17.57;;;;;;;0.33;100.00;100834.06;5051304;28;20489;-66
2024/01/10 01:20:48;;;;;;;25.57;17.47;;;;;;;0.36;100.00;100836.44;5051409;28;20474;-66
2024/01/10 01:23:15;;;;;;;22.90;16.00;;;;;;;0.41;100.00;100834.41;5050811;28;20444;-65
2024/01/10 01:25:41;;;;;;;24.50;17.10;;;;;;;0.27;100.00;100831.81;5051183;28;20440;-66
2024/01/10 01:28:09;;;;;;;22.33;16.50;;;;;;;0.18;100.00;100829.81;5051335;28;20439;-66
2024/01/10 01:30:35;;;;;;;22.60;16.60;;;;;;;0.19;100.00;100831.47;5051090;28;20558;-66
2024/01/10 01:33:04;;;;;;;23.90;18.07;;;;;;;0.35;100.00;100826.94;5050989;28;20508;-66
2024/01/10 01:35:31;;;;;;;25.37;17.63;;;;;;;0.50;100.00;100825.97;5050844;28;20799;-66
2024/01/10 01:37:58;;;;;;;23.57;17.50;;;;;;;0.56;100.00;100825.53;5051286;28;20492;-66
2024/01/10 01:40:24;;;;;;;23.27;16.67;;;;;;;0.47;100.00;100820.91;5050591;28;20475;-66
2024/01/10 01:42:51;;;;;;;21.33;16.10;;;;;;;0.47;100.00;100820.91;5051034;28;20447;-68
2024/01/10 01:45:18;;;;;;;28.10;16.87;;;;;;;0.50;100.00;100831.19;5050955;28;20494;-66
2024/01/10 01:47:45;;;;;;;22.50;16.83;;;;;;;0.48;100.00;100843.50;5051364;28;20551;-67
2024/01/10 01:50:13;;;;;;;40.67;22.73;;;;;;;0.52;100.00;100839.75;5050665;28;20444;-66
2024/01/10 01:52:40;;;;;;;96.93;41.93;;;;;;;0.46;100.00;100834.94;5051303;28;21179;-66
2024/01/10 01:55:08;;;;;;;43.20;23.93;;;;;;;0.46;99.88;100834.94;5052837;28;20512;-66
2024/01/10 01:57:36;;;;;;;44.03;24.23;;;;;;;0.59;100.00;100827.97;5054903;28;20442;-66
2024/01/10 02:00:04;;;;;;;30.67;18.40;;;;;;;0.74;100.00;100824.34;5054025;28;21017;-66
2024/01/10 02:02:31;;;;;;;28.03;19.80;;;;;;;0.91;99.71;100813.59;5054941;28;20446;-65
2024/01/10 02:04:59;;;;;;;27.93;18.10;;;;;;;1.02;98.87;100813.69;5054272;28;20942;-65
2024/01/10 02:07:28;;;;;;;25.13;18.57;;;;;;;1.04;97.91;100814.44;5054492;28;20950;-66
2024/01/10 02:09:54;;;;;;;23.63;16.93;;;;;;;1.10;96.47;100811.41;5054222;28;20443;-66
2024/01/10 02:12:22;;;;;;;23.27;16.03;;;;;;;1.05;95.87;100810.88;5054401;28;20496;-66
2024/01/10 02:14:49;;;;;;;20.17;15.57;;;;;;;0.91;95.20;100812.75;5054150;28;20942;-66
2024/01/10 02:17:16;;;;;;;18.80;14.83;;;;;;;0.90;96.22;100808.47;5054073;28;20473;-67
2024/01/10 02:19:42;;;;;;;20.43;16.20;;;;;;;0.97;96.37;100805.31;5053811;28;20480;-66
2024/01/10 02:22:10;;;;;;;20.97;15.77;;;;;;;1.05;95.67;100805.66;5054246;28;20450;-67
2024/01/10 02:24:39;;;;;;;20.57;16.63;;;;;;;1.10;94.78;100810.59;5054314;28;20516;-66
2024/01/10 02:27:07;;;;;;;18.20;15.07;;;;;;;1.13;94.57;100811.19;5054174;28;20501;-66
2024/01/10 02:29:35;;;;;;;20.80;15.03;;;;;;;1.09;94.37;100817.59;5046371;28;20467;-66
2024/01/10 02:32:02;;;;;;;20.53;15.50;;;;;;;1.11;93.99;100813.09;5053652;28;20502;-67
2024/01/10 02:34:30;;;;;;;16.80;14.20;;;;;;;0.99;93.06;100811.31;5053841;28;20883;-67
2024/01/10 02:36:58;;;;;;;19.07;14.73;;;;;;;0.87;93.52;100803.44;5050164;28;20440;-67
2024/01/10 02:39:24;;;;;;;19.97;14.87;;;;;;;0.86;93.14;100801.78;5036877;28;20508;-67
2024/01/10 02:41:51;;;;;;;20.67;16.07;;;;;;;0.79;93.39;100797.88;5053425;28;20957;-67
2024/01/10 02:44:19;;;;;;;19.27;14.93;;;;;;;0.80;94.10;100802.16;5053651;28;21000;-67
2024/01/10 02:46:46;;;;;;;20.87;15.13;;;;;;;0.78;94.07;100804.91;5053816;28;20513;-67
2024/01/10 02:49:13;;;;;;;21.07;15.47;;;;;;;0.69;94.10;100795.03;5053827;28;20427;-67
2024/01/10 02:51:39;;;;;;;22.63;16.40;;;;;;;0.56;94.30;100804.63;5053471;28;20462;-67
2024/01/10 02:54:06;;;;;;;20.50;15.60;;;;;;;0.58;94.55;100802.78;5053859;28;20498;-67
2024/01/10 02:56:33;;;;;;;19.60;14.43;;;;;;;0.51;94.23;100791.03;5053390;28;20443;-67
2024/01/10 02:58:59;;;;;;;21.20;14.87;;;;;;;0.50;93.67;100809.44;5053856;28;20447;-66
2024/01/10 03:01:27;;;;;;;18.40;14.77;;;;;;;0.53;94.24;100802.22;5053173;28;20560;-66
2024/01/10 03:03:54;;;;;;;19.50;15.20;;;;;;;0.60;93.21;100803.50;5053675;28;20788;-67
2024/01/10 03:06:21;;;;;;;20.80;15.10;;;;;;;0.56;92.51;100804.63;5052778;28;20448;-66
2024/01/10 03:08:47;;;;;;;21.13;14.87;;;;;;;0.63;93.07;100805.06;5053901;28;20436;-66
2024/01/10 03:11:14;;;;;;;17.93;14.00;;;;;;;0.62;93.15;100803.41;5052829;28;20452;-66
2024/01/10 03:13:41;;;;;;;16.20;12.70;;;;;;;0.59;91.73;100801.81;5052905;28;20849;-66
2024/01/10 03:16:07;;;;;;;15.90;12.90;;;;;;;0.53;92.53;100794.38;5053605;28;20439;-66
2024/01/10 03:18:36;;;;;;;17.70;12.47;;;;;;;0.61;92.19;100797.31;5053014;28;21019;-65
2024/01/10 03:21:02;;;;;;;14.27;12.13;;;;;;;0.74;92.22;100798.22;5052492;28;20470;-67
2024/01/10 03:23:29;;;;;;;12.97;11.63;;;;;;;0.61;90.55;100796.50;5053244;28;20441;-66
2024/01/10 03:25:57;;;;;;;12.43;11.23;;;;;;;0.71;90.80;100795.78;5053445;28;20510;-66
2024/01/10 03:28:24;;;;;;;12.90;11.63;;;;;;;0.70;90.17;100790.66;5053087;28;20441;-66
2024/01/10 03:30:51;;;;;;;16.10;12.27;;;;;;;0.78;90.08;100794.44;5052921;28;20502;-66
2024/01/10 03:33:17;;;;;;;19.60;11.77;;;;;;;0.90;90.52;100800.63;5052852;28;20458;-66
2024/01/10 03:35:45;;;;;;;15.90;11.33;;;;;;;0.90;89.26;100804.06;5052546;28;20946;-66
2024/01/10 03:38:12;;;;;;;22.23;13.10;;;;;;;0.90;88.92;100803.25;5052871;28;20866;-66
2024/01/10 03:40:39;;;;;;;19.50;13.33;;;;;;;0.79;88.73;100797.88;5052060;28;20513;-67
2024/01/10 03:43:05;;;;;;;16.80;12.20;;;;;;;0.89;89.14;100802.38;5051425;28;20954;-66
2024/01/10 03:45:33;;;;;;;19.30;13.57;;;;;;;0.90;89.11;100801.44;5052758;28;20447;-66
2024/01/10 03:48:00;;;;;;;13.73;12.27;;;;;;;0.81;89.08;100791.59;5052306;28;20954;-66
2024/01/10 03:50:27;;;;;;;21.00;13.70;;;;;;;0.91;90.56;100791.81;5052435;28;20439;-66
2024/01/10 03:52:55;;;;;;;22.23;15.40;;;;;;;0.81;90.22;100803.88;5052193;28;20443;-66
2024/01/10 03:55:21;;;;;;;19.97;14.67;;;;;;;0.93;91.05;100798.63;5052877;28;20439;-67
2024/01/10 03:57:48;;;;;;;20.87;14.13;;;;;;;0.96;90.41;100802.81;5052529;28;20494;-67
2024/01/10 04:00:15;;;;;;;21.07;13.70;;;;;;;1.06;90.73;100799.47;5052167;28;20540;-66
2024/01/10 04:02:41;;;;;;;18.43;14.10;;;;;;;1.10;90.44;100805.34;5051994;28;20446;-66
2024/01/10 04:05:11;;;;;;;19.67;14.90;;;;;;;1.21;91.35;100808.91;5052037;28;20497;-66
2024/01/10 04:07:41;;;;;;;19.40;14.20;;;;;;;1.27;90.80;100805.88;5052553;28;20461;-66
2024/01/10 04:10:10;;;;;;;17.50;14.47;;;;;;;1.25;89.11;100810.38;5051737;28;20448;-67
2024/01/10 04:12:37;;;;;;;23.40;15.77;;;;;;;1.32;89.92;100806.41;5052299;28;20496;-67
2024/01/10 04:15:05;;;;;;;21.33;15.17;;;;;;;1.23;88.35;100800.94;5051910;28;20846;-66
2024/01/10 04:17:31;;;;;;;20.20;15.03;;;;;;;1.30;89.93;100813.50;5051885;28;20593;-66
2024/01/10 04:19:58;;;;;;;20.57;16.10;;;;;;;1.33;89.17;100813.28;5051492;28;20816;-67
2024/01/10 04:22:25;;;;;;;22.53;16.43;;;;;;;1.37;89.38;100814.75;5051973;28;20451;-67
2024/01/10 04:24:52;;;;;;;20.20;15.30;;;;;;;1.35;88.58;100816.63;5051857;28;20446;-67
2024/01/10 04:27:20;;;;;;;28.33;17.97;;;;;;;1.41;88.56;100805.75;5051705;28;20443;-66
2024/01/10 04:29:47;;;;;;;25.43;16.00;;;;;;;1.50;89.46;100815.56;5051662;28;20474;-67
2024/01/10 04:32:14;;;;;;;23.10;16.63;;;;;;;1.60;88.31;100826.25;5051575;28;20446;-67
2024/01/10 04:34:41;;;;;;;21.63;15.00;;;;;;;1.65;89.21;100819.75;5052009;28;20439;-66
2024/01/10 04:37:08;;;;;;;22.50;15.50;;;;;;;1.70;88.23;100828.13;5046957;28;20946;-66
2024/01/10 04:39:35;;;;;;;19.10;15.20;;;;;;;1.74;88.74;100824.34;5031329;28;20944;-66
2024/01/10 04:42:02;;;;;;;23.60;15.10;;;;;;;1.80;88.12;100831.75;5051152;28;20486;-66
2024/01/10 04:44:30;;;;;;;17.93;14.37;;;;;;;1.82;88.16;100824.63;5051513;28;20976;-66
2024/01/10 04:46:57;;;;;;;21.00;13.73;;;;;;;1.85;87.48;100837.53;5051666;28;20488;-66
2024/01/10 04:49:24;;;;;;;17.67;14.33;;;;;;;1.81;87.76;100846.53;5051195;28;20504;-65
2024/01/10 04:51:51;;;;;;;19.23;14.07;;;;;;;1.70;87.19;100848.22;5051470;28;20454;-66
2024/01/10 04:54:17;;;;;;;17.07;13.70;;;;;;;1.68;87.87;100850.97;5051669;28;20520;-65
2024/01/10 04:56:44;;;;;;;18.57;13.93;;;;;;;1.73;87.92;100846.25;5051613;28;20451;-67
2024/01/10 04:59:11;;;;;;;18.93;13.87;;;;;;;1.82;87.51;100855.22;5042722;28;20973;-69
2024/01/10 05:01:39;;;;;;;19.93;13.87;;;;;;;1.81;87.60;100858.78;5036348;28;20478;-69
2024/01/10 05:04:06;;;;;;;21.40;13.80;;;;;;;1.81;86.82;100857.03;5051579;28;20438;-69
2024/01/10 05:06:33;;;;;;;19.60;13.80;;;;;;;1.85;87.53;100857.63;5040973;28;20510;-69
2024/01/10 05:08:59;;;;;;;27.10;15.27;;;;;;;1.90;87.08;100866.84;5037950;28;20974;-68
2024/01/10 05:11:26;;;;;;;21.53;14.60;;;;;;;1.93;87.21;100864.03;5051257;28;20446;-66
2024/01/10 05:13:53;;;;;;;19.73;13.40;;;;;;;1.95;87.13;100862.13;5051199;28;21037;-66
2024/01/10 05:16:20;;;;;;;24.27;14.43;;;;;;;1.97;86.97;100865.50;5051367;28;20496;-69
2024/01/10 05:18:48;;;;;;;18.23;13.33;;;;;;;1.89;86.73;100865.19;5050551;28;20800;-64
2024/01/10 05:21:15;;;;;;;18.17;13.83;;;;;;;1.90;86.64;100868.63;5051252;28;20555;-65
2024/01/10 05:23:41;;;;;;;27.80;15.73;;;;;;;1.94;87.53;100870.09;5051299;28;20479;-64
2024/01/10 05:26:08;;;;;;;18.07;14.00;;;;;;;1.94;87.06;100872.69;5044581;28;20518;-66
2024/01/10 05:28:35;;;;;;;21.10;15.30;;;;;;;1.91;87.10;100878.19;5033267;28;20504;-67
2024/01/10 05:31:02;;;;;;;18.77;14.50;;;;;;;1.87;87.21;100874.91;5050471;28;20476;-65
2024/01/10 05:33:28;;;;;;;23.40;14.67;;;;;;;1.90;87.25;100871.25;5033962;28;20498;-65
2024/01/10 05:35:58;;;;;;;18.87;13.90;;;;;;;1.86;87.11;100888.13;5049589;28;20444;-65
2024/01/10 05:38:24;;;;;;;26.73;15.90;;;;;;;1.84;87.43;100887.41;5050034;28;20450;-66
2024/01/10 05:40:52;;;;;;;28.40;16.67;;;;;;;1.82;87.13;100887.50;5034881;28;20541;-65
2024/01/10 05:43:18;;;;;;;29.93;17.07;;;;;;;1.75;86.82;100888.06;5038033;28;20446;-66
2024/01/10 05:45:45;;;;;;;27.50;18.53;;;;;;;1.64;87.24;100886.16;5052916;28;20749;-65
2024/01/10 05:48:12;;;;;;;30.33;18.03;;;;;;;1.51;87.16;100885.31;5051935;28;20447;-64
2024/01/10 05:50:39;;;;;;;24.07;16.80;;;;;;;1.32;87.52;100874.44;5053730;28;20957;-65
2024/01/10 05:53:08;;;;;;;27.37;17.60;;;;;;;1.09;87.58;100880.38;5052477;28;20447;-65
2024/01/10 05:55:36;;;;;;;27.93;17.30;;;;;;;0.96;88.48;100871.66;5053416;28;20552;-65
2024/01/10 05:58:03;;;;;;;36.70;19.63;;;;;;;0.86;89.41;100869.75;5051805;28;20513;-65
2024/01/10 06:00:30;;;;;;;26.67;18.63;;;;;;;0.76;90.27;100874.75;5051983;28;20470;-65
2024/01/10 06:02:56;;;;;;;33.60;18.80;;;;;;;0.70;91.04;100874.31;5052934;28;20440;-65
2024/01/10 06:05:23;;;;;;;35.50;18.70;;;;;;;0.64;92.29;100886.00;5068533;28;20443;-65
2024/01/10 06:07:50;;;;;;;29.13;19.80;;;;;;;0.70;91.68;100887.41;5052665;28;20457;-65
2024/01/10 06:10:18;;;;;;;65.07;36.90;;;;;;;0.68;91.60;100884.03;5053074;28;20451;-66
2024/01/10 06:12:45;;;;;;;58.43;32.43;;;;;;;0.66;91.92;100880.69;5051721;28;20435;-65
2024/01/10 06:15:12;;;;;;;46.70;30.30;;;;;;;0.57;92.08;100889.13;5050649;28;20462;-64
2024/01/10 06:17:38;;;;;;;38.13;24.93;;;;;;;0.53;92.20;100898.09;5051336;28;20443;-66
2024/01/10 06:20:06;;;;;;;39.80;23.97;;;;;;;0.49;93.04;100897.44;5036463;28;20477;-66
2024/01/10 06:22:33;;;;;;;36.10;23.37;;;;;;;0.42;92.66;100908.41;5033920;28;20510;-64
2024/01/10 06:25:00;;;;;;;37.10;23.50;;;;;;;0.36;93.55;100909.63;5051342;28;20477;-66
2024/01/10 06:27:30;;;;;;;44.27;23.90;;;;;;;0.32;94.18;100905.53;5052199;28;20895;-66
2024/01/10 06:29:56;;;;;;;41.67;25.10;;;;;;;0.37;94.61;100913.94;5052014;28;20475;-64
2024/01/10 06:32:23;;;;;;;62.23;37.00;;;;;;;0.36;95.05;100909.63;5053633;28;20528;-65
2024/01/10 06:34:50;;;;;;;35.60;24.30;;;;;;;0.32;95.33;100926.44;5041663;28;21579;-66
2024/01/10 06:37:16;;;;;;;54.17;28.27;;;;;;;0.29;95.41;100931.00;5044552;28;20463;-69
2024/01/10 06:39:43;;;;;;;81.57;40.40;;;;;;;0.32;95.70;100923.81;5046444;28;20466;-66
2024/01/10 06:42:11;;;;;;;66.77;38.57;;;;;;;0.34;95.28;100932.41;5046693;28;20564;-65
2024/01/10 06:44:39;;;;;;;59.13;34.87;;;;;;;0.41;96.58;100932.84;5044938;28;20506;-65
2024/01/10 06:47:07;;;;;;;52.13;30.67;;;;;;;0.42;95.96;100924.94;5045900;28;20475;-64
2024/01/10 06:49:34;;;;;;;58.17;31.47;;;;;;;0.58;96.30;100938.72;5039427;28;20467;-63
2024/01/10 06:52:01;;;;;;;66.00;34.80;;;;;;;0.66;96.09;100935.59;5047461;28;20551;-63
2024/01/10 06:54:27;;;;;;;57.33;33.87;;;;;;;0.80;95.75;100939.00;5047464;28;20455;-64
2024/01/10 06:56:54;;;;;;;43.53;24.23;;;;;;;0.89;95.26;100948.03;5047969;28;20463;-64
2024/01/10 06:59:21;;;;;;;39.57;23.23;;;;;;;0.92;95.05;100942.56;5047202;28;21044;-63
2024/01/10 07:01:53;;;;;;;46.27;30.93;;;;;;;1.01;95.50;100948.06;5047808;28;20537;-64
2024/01/10 07:04:23;;;;;;;48.70;26.23;;;;;;;1.16;95.73;100948.81;5040637;28;20961;-63
2024/01/10 07:06:50;;;;;;;38.93;24.13;;;;;;;1.23;94.21;100943.09;5047534;28;20546;-63
2024/01/10 07:09:19;;;;;;;36.60;22.73;;;;;;;1.38;94.53;100952.53;5040165;28;20470;-63
2024/01/10 07:11:47;;;;;;;36.73;23.37;;;;;;;1.50;93.18;100949.09;5040642;28;21035;-63
2024/01/10 07:14:14;;;;;;;34.10;21.77;;;;;;;1.63;92.56;100952.56;5040142;28;20458;-62
2024/01/10 07:16:42;;;;;;;36.57;22.17;;;;;;;1.75;92.53;100950.91;5047753;28;21056;-64
2024/01/10 07:19:13;;;;;;;38.73;20.50;;;;;;;1.92;92.05;100954.03;5046532;28;20474;-64
2024/01/10 07:21:40;;;;;;;40.20;22.50;;;;;;;2.02;90.27;100960.31;5041097;28;20848;-62
2024/01/10 07:24:08;;;;;;;37.00;21.47;;;;;;;2.04;88.56;100968.91;5042971;28;20451;-64
2024/01/10 07:26:35;;;;;;;42.80;24.87;;;;;;;2.02;87.80;100970.81;5046095;28;20450;-66
2024/01/10 07:29:02;;;;;;;36.57;21.40;;;;;;;2.03;88.85;100976.84;5037749;28;20494;-66
2024/01/10 07:31:29;;;;;;;41.47;22.37;;;;;;;2.10;88.58;100984.22;5046377;28;21054;-66
2024/01/10 07:33:56;;;;;;;31.90;20.97;;;;;;;2.11;88.22;100980.63;5046731;28;20597;-66
2024/01/10 07:36:26;;;;;;;34.97;23.03;;;;;;;2.08;87.81;100991.31;5041986;28;20608;-66
2024/01/10 07:38:53;;;;;;;28.37;20.27;;;;;;;2.02;88.14;100986.53;5046233;28;20455;-66
2024/01/10 07:41:20;;;;;;;25.63;18.23;;;;;;;2.06;87.62;100995.00;5041226;28;20483;-66
2024/01/10 07:43:46;;;;;;;29.70;18.80;;;;;;;1.97;88.18;100967.66;5039106;28;20975;-66
2024/01/10 07:46:13;;;;;;;36.37;20.03;;;;;;;2.14;87.09;100990.91;5046704;28;20513;-66
2024/01/10 07:48:40;;;;;;;50.13;24.80;;;;;;;2.24;88.11;100991.94;5047244;28;20900;-67
2024/01/10 07:51:06;;;;;;;41.57;24.33;;;;;;;2.48;88.27;100984.97;5040973;28;20221;-66
2024/01/10 07:53:35;;;;;;;32.80;21.77;;;;;;;2.76;87.29;100992.56;5047848;28;20455;-67
2024/01/10 07:56:02;;;;;;;32.50;21.40;;;;;;;2.99;86.65;101001.41;5047329;28;20832;-67
2024/01/10 07:58:29;;;;;;;24.73;18.90;;;;;;;3.08;84.17;101004.19;5047871;28;20470;-67
2024/01/10 08:00:56;;;;;;;29.80;19.63;;;;;;;3.15;83.93;101013.28;5046963;28;20509;-67
2024/01/10 08:03:23;;;;;;;27.33;18.43;;;;;;;3.14;84.33;101010.81;5039757;28;20654;-67
2024/01/10 08:05:49;;;;;;;28.37;19.30;;;;;;;3.28;84.74;101006.22;5046483;28;20200;-66
2024/01/10 08:08:16;;;;;;;24.80;17.90;;;;;;;3.30;83.14;100996.41;5045685;28;20358;-65
2024/01/10 08:10:44;;;;;;;30.47;18.83;;;;;;;3.46;83.20;101007.47;5046424;28;20193;-68
2024/01/10 08:13:11;;;;;;;26.13;18.27;;;;;;;3.52;81.22;101017.50;5045570;28;20520;-66
2024/01/10 08:15:38;;;;;;;22.90;18.00;;;;;;;3.62;83.48;101013.25;5041563;28;20224;-65
2024/01/10 08:18:07;;;;;;;25.33;17.77;;;;;;;3.66;80.88;101019.94;5043728;28;20255;-66
2024/01/10 08:20:34;;;;;;;25.77;16.30;;;;;;;3.71;79.94;101023.06;5043980;28;20279;-66
2024/01/10 08:23:00;;;;;;;23.87;15.27;;;;;;;3.79;78.43;101019.84;5039373;28;21079;-66
2024/01/10 08:25:27;;;;;;;26.47;19.60;;;;;;;3.74;78.98;101022.84;5047036;28;20254;-65
2024/01/10 08:27:57;;;;;;;25.07;18.43;;;;;;;3.65;78.46;101007.78;5045918;28;20266;-67
2024/01/10 08:30:24;;;;;;;23.37;20.57;;;;;;;3.83;79.91;101009.00;5039200;28;20272;-67
2024/01/10 08:32:51;;;;;;;18.50;16.37;;;;;;;3.90;78.96;101014.63;5047114;28;20674;-67
2024/01/10 08:35:19;;;;;;;19.07;13.93;;;;;;;3.92;77.79;101021.44;5047280;28;20255;-67
2024/01/10 08:37:46;;;;;;;15.57;13.73;;;;;;;4.01;76.90;101020.72;5046576;28;20199;-67
2024/01/10 08:40:15;;;;;;;31.97;20.63;;;;;;;3.93;76.82;101025.72;5046563;28;20196;-66
2024/01/10 08:42:41;;;;;;;24.50;17.33;;;;;;;3.90;78.50;101007.59;5046505;28;20216;-67
2024/01/10 08:45:11;;;;;;;21.43;16.13;;;;;;;3.94;78.11;101014.28;5046486;28;20283;-67
2024/01/10 08:47:38;;;;;;;17.13;12.87;;;;;;;3.87;75.82;101012.22;5045788;28;20208;-67
2024/01/10 08:50:08;;;;;;;19.77;13.93;;;;;;;3.78;76.09;101018.19;5046283;28;20254;-67
2024/01/10 08:52:37;;;;;;;20.90;13.43;;;;;;;3.55;76.00;101022.53;5040677;28;20200;-67
2024/01/10 08:55:04;;;;;;;19.07;14.00;;;;;;;3.37;76.59;101009.94;5046622;28;20211;-67
2024/01/10 08:57:31;;;;;;;21.77;15.30;;;;;;;3.22;77.70;101006.66;5039593;28;20303;-67
2024/01/10 08:59:58;;;;;;;21.43;16.00;;;;;;;3.23;78.55;100995.19;5041165;28;20208;-67
2024/01/10 09:02:27;;;;;;;27.17;16.80;;;;;;;3.30;79.68;101001.66;5044965;28;20247;-67
2024/01/10 09:04:54;;;;;;;20.77;15.73;;;;;;;3.47;79.09;100998.63;5049465;28;20656;-66
2024/01/10 09:07:21;;;;;;;23.00;17.73;;;;;;;3.64;79.84;100995.56;5053746;28;20519;-67
2024/01/10 09:09:48;;;;;;;24.07;16.10;;;;;;;3.86;79.48;100979.88;5053104;28;20454;-67
2024/01/10 09:12:14;;;;;;;20.97;16.57;;;;;;;3.92;78.05;100989.09;5054116;28;20261;-68
2024/01/10 09:14:41;;;;;;;23.70;16.27;;;;;;;4.14;79.09;100989.94;5051368;28;20196;-68
2024/01/10 09:17:08;;;;;;;28.80;17.53;;;;;;;4.38;77.74;101002.97;5049181;28;20242;-67
2024/01/10 09:19:36;;;;;;;25.67;18.50;;;;;;;4.61;76.93;100997.56;5053619;28;20204;-67
2024/01/10 09:22:03;;;;;;;25.63;17.73;;;;;;;4.60;76.66;100992.41;5053266;28;20265;-68
2024/01/10 09:24:29;;;;;;;25.40;17.00;;;;;;;4.77;76.17;101003.28;5053283;28;20257;-66
2024/01/10 09:26:57;;;;;;;24.23;16.93;;;;;;;4.84;75.57;100995.72;5052479;28;20200;-68
2024/01/10 09:29:25;;;;;;;26.40;18.13;;;;;;;4.97;76.47;100993.78;5045298;28;20317;-67
2024/01/10 09:31:52;;;;;;;21.93;16.57;;;;;;;5.02;76.08;100989.81;5045553;28;20280;-66
2024/01/10 09:34:18;;;;;;;22.30;16.60;;;;;;;5.12;75.53;100998.66;5053153;28;20196;-67
2024/01/10 09:36:47;;;;;;;22.03;16.67;;;;;;;5.21;75.16;100990.00;5052813;28;20197;-66
2024/01/10 09:39:14;;;;;;;21.33;16.03;;;;;;;5.02;73.35;100991.59;5047987;28;20658;-67
2024/01/10 09:41:48;;;;;;;23.93;16.97;;;;;;;5.20;75.65;100983.03;5048179;28;21001;-65
2024/01/10 09:44:17;;;;;;;25.83;19.20;;;;;;;5.69;75.07;100982.47;5050349;28;20447;-65
2024/01/10 09:46:47;;;;;;;23.07;16.40;;;;;;;6.27;71.28;100991.56;5053107;28;20204;-64
2024/01/10 09:49:13;;;;;;;21.03;16.93;;;;;;;6.64;69.88;100987.38;5039062;28;20214;-65
2024/01/10 09:51:40;;;;;;;19.17;15.03;;;;;;;6.17;69.23;100995.97;5053172;28;20252;-66
2024/01/10 09:54:08;;;;;;;20.73;14.67;;;;;;;6.16;69.45;100981.09;5052941;28;20197;-69
2024/01/10 09:56:35;;;;;;;16.67;14.20;;;;;;;5.90;70.23;100979.84;5053678;28;20228;-67
2024/01/10 09:59:04;;;;;;;17.23;13.67;;;;;;;5.57;71.43;100976.41;5053887;28;20282;-66
2024/01/10 10:01:32;;;;;;;13.77;12.27;;;;;;;5.50;71.30;100970.00;5053348;28;20204;-67
2024/01/10 10:03:59;;;;;;;13.37;11.97;;;;;;;5.32;70.31;100970.69;5052046;28;20780;-67
2024/01/10 10:06:26;;;;;;;15.40;10.57;;;;;;;5.14;70.67;100962.47;5045243;28;20193;-68
2024/01/10 10:08:53;;;;;;;15.60;14.13;;;;;;;5.00;69.18;100968.06;5053502;28;20200;-66
2024/01/10 10:11:21;;;;;;;9.23;8.33;;;;;;;5.00;68.61;100965.41;5052691;28;20197;-67
2024/01/10 10:13:47;;;;;;;10.80;9.60;;;;;;;4.71;69.12;100969.53;5053239;28;20209;-68
2024/01/10 10:16:14;;;;;;;10.53;9.63;;;;;;;4.81;69.28;100965.22;5049948;28;20761;-68
2024/01/10 10:18:42;;;;;;;12.13;9.63;;;;;;;4.74;69.79;100964.03;5046064;28;20242;-65
2024/01/10 10:21:11;;;;;;;12.73;9.57;;;;;;;4.90;70.88;100958.41;5042212;28;20213;-65
2024/01/10 10:23:38;;;;;;;9.20;8.20;;;;;;;5.02;69.18;100957.38;5048444;28;20225;-65
2024/01/10 10:26:13;;;;;;;8.97;8.17;;;;;;;5.13;66.95;100965.25;5049896;28;20204;-69
2024/01/10 10:28:42;;;;;;;11.83;9.47;;;;;;;5.23;68.23;100948.56;5043076;28;20727;-68
2024/01/10 10:31:09;;;;;;;10.50;8.97;;;;;;;4.98;67.31;100951.53;5050486;28;20219;-68
2024/01/10 10:33:37;;;;;;;9.87;8.97;;;;;;;4.78;68.30;100949.66;5047356;28;20228;-68
2024/01/10 10:36:04;;;;;;;11.23;8.43;;;;;;;4.94;69.34;100944.84;5046335;28;20193;-68
2024/01/10 10:38:30;;;;;;;12.10;10.03;;;;;;;4.96;69.16;100931.56;5049429;28;20201;-68
2024/01/10 10:40:59;;;;;;;17.00;11.10;;;;;;;5.17;68.34;100930.63;5049230;28;20192;-69
2024/01/10 10:43:26;;;;;;;13.17;10.73;;;;;;;5.21;68.86;100937.31;5043958;28;20217;-69
2024/01/10 10:45:57;;;;;;;13.93;10.67;;;;;;;4.90;68.64;100922.34;5042312;28;20266;-67
2024/01/10 10:48:27;;;;;;;12.83;10.80;;;;;;;4.99;68.60;100932.13;5047150;28;20721;-67
2024/01/10 10:51:00;;;;;;;10.17;9.20;;;;;;;5.40;78.92;100897.91;5041421;28;20660;-68
2024/01/10 10:53:28;;;;;;;11.33;10.33;;;;;;;5.48;68.18;100921.81;5049392;28;20197;-68
2024/01/10 10:55:57;;;;;;;9.80;8.90;;;;;;;5.49;66.54;100910.34;5052767;28;20246;-68
2024/01/10 10:58:24;;;;;;;10.85;9.15;;;;;;;5.84;66.38;100925.00;5042559;28;21030;-70
2024/01/10 11:00:52;;;;;;;9.83;8.90;;;;;;;6.04;64.93;100916.22;5045947;28;20891;-70
2024/01/10 11:03:22;;;;;;;8.73;7.83;;;;;;;6.12;63.42;100919.03;5048533;28;20966;-69
2024/01/10 11:05:50;;;;;;;9.27;8.40;;;;;;;6.17;62.94;100916.81;5042607;28;20258;-67
2024/01/10 11:08:21;;;;;;;9.13;8.23;;;;;;;5.98;62.97;100916.72;5048092;28;20664;-69
2024/01/10 11:10:49;;;;;;;17.73;8.37;;;;;;;5.90;63.22;100913.91;5047740;28;20192;-70
2024/01/10 11:13:42;;;;;;;12.07;9.97;;;;;;;5.49;64.10;100907.72;5047204;28;20233;-68
2024/01/10 11:16:42;;;;;;;11.27;10.10;;;;;;;4.96;65.75;100913.13;5042052;28;20197;-69
2024/01/10 11:19:37;;;;;;;12.03;8.70;;;;;;;4.93;66.94;100895.78;5042383;28;20198;-68